Time,TemperatureF,DewpointF,PressureIn,WindDirection,WindDirectionDegrees,WindSpeedMPH,WindSpeedGustMPH,Humidity,HourlyPrecipIn,Conditions,Clouds,dailyrainin,SoftwareType,DateUTC
2013-03-09 00:02:00,30.6,23.0,30.34,NNW,339,0.0,-999.0,72,-99.99,,,0.00,weatherlink.com 1.10,2013-03-09 05:02:00,
2013-03-09 00:17:00,30.6,23.0,30.34,NNW,339,0.0,-999.0,72,-99.99,,,0.00,weatherlink.com 1.10,2013-03-09 05:17:00,
2013-03-09 00:32:00,30.4,22.0,30.34,NNW,339,0.0,-999.0,72,-99.99,,,0.00,weatherlink.com 1.10,2013-03-09 05:32:00,
2013-03-09 00:47:00,30.4,23.0,30.34,NNW,339,0.0,-999.0,73,-99.99,,,0.00,weatherlink.com 1.10,2013-03-09 05:47:00,
2013-03-09 01:02:00,30.3,23.0,30.34,NNW,339,0.0,-999.0,73,-99.99,,,0.00,weatherlink.com 1.10,2013-03-09 06:02:00,
2013-03-09 01:17:00,30.4,23.0,30.34,NNW,339,0.0,-999.0,73,-99.99,,,0.00,weatherlink.com 1.10,2013-03-09 06:17:00,
2013-03-09 01:32:00,30.4,23.0,30.34,NNW,339,0.0,-999.0,73,-99.99,,,0.00,weatherlink.com 1.10,2013-03-09 06:32:00,
2013-03-09 01:47:00,29.7,22.0,30.33,NNW,339,0.0,-999.0,74,-99.99,,,0.00,weatherlink.com 1.10,2013-03-09 06:47:00,
2013-03-09 02:02:00,29.3,23.0,30.32,NNW,339,0.0,-999.0,76,-99.99,,,0.00,weatherlink.com 1.10,2013-03-09 07:02:00,
2013-03-09 02:17:00,29.4,23.0,30.32,NNW,339,0.0,-999.0,76,-99.99,,,0.00,weatherlink.com 1.10,2013-03-09 07:17:00,
2013-03-09 02:32:00,29.0,22.0,30.30,NNW,339,0.0,-999.0,76,-99.99,,,0.00,weatherlink.com 1.10,2013-03-09 07:32:00,
2013-03-09 02:47:00,28.4,22.0,30.30,NNW,339,0.0,-999.0,77,-99.99,,,0.00,weatherlink.com 1.10,2013-03-09 07:47:00,
2013-03-09 03:02:00,27.9,22.0,30.29,NNW,339,0.0,-999.0,79,-99.99,,,0.00,weatherlink.com 1.10,2013-03-09 08:02:00,
2013-03-09 03:17:00,28.2,22.0,30.29,NNW,339,0.0,-999.0,78,-99.99,,,0.00,weatherlink.com 1.10,2013-03-09 08:17:00,
2013-03-09 03:32:00,28.2,22.0,30.29,NNW,339,0.0,-999.0,78,-99.99,,,0.00,weatherlink.com 1.10,2013-03-09 08:32:00,
2013-03-09 03:47:00,27.8,22.0,30.29,NNW,339,0.0,-999.0,79,-99.99,,,0.00,weatherlink.com 1.10,2013-03-09 08:47:00,
2013-03-09 04:02:00,27.0,22.0,30.29,NNW,339,0.0,-999.0,80,-99.99,,,0.00,weatherlink.com 1.10,2013-03-09 09:02:00,
2013-03-09 04:17:00,27.0,22.0,30.30,NNW,339,0.0,-999.0,81,-99.99,,,0.00,weatherlink.com 1.10,2013-03-09 09:17:00,
2013-03-09 04:32:00,27.0,22.0,30.30,NNW,339,0.0,-999.0,81,-99.99,,,0.00,weatherlink.com 1.10,2013-03-09 09:32:00,
2013-03-09 04:47:00,27.3,22.0,30.30,NNW,339,0.0,-999.0,80,-99.99,,,0.00,weatherlink.com 1.10,2013-03-09 09:47:00,
2013-03-09 05:02:00,27.2,22.0,30.30,NNW,339,0.0,-999.0,80,-99.99,,,0.00,weatherlink.com 1.10,2013-03-09 10:02:00,
2013-03-09 05:17:00,27.2,22.0,30.30,NNW,339,0.0,-999.0,80,-99.99,,,0.00,weatherlink.com 1.10,2013-03-09 10:17:00,
2013-03-09 05:32:00,26.7,22.0,30.30,NNW,339,0.0,-999.0,81,-99.99,,,0.00,weatherlink.com 1.10,2013-03-09 10:32:00,
2013-03-09 05:47:00,26.9,22.0,30.30,NNW,339,0.0,-999.0,81,-99.99,,,0.00,weatherlink.com 1.10,2013-03-09 10:47:00,
2013-03-09 06:02:00,27.0,22.0,30.30,NNW,339,0.0,-999.0,81,-99.99,,,0.00,weatherlink.com 1.10,2013-03-09 11:02:00,
2013-03-09 06:17:00,27.3,22.0,30.30,NNW,339,0.0,-999.0,81,-99.99,,,0.00,weatherlink.com 1.10,2013-03-09 11:17:00,
2013-03-09 06:32:00,27.0,22.0,30.30,NNW,339,0.0,-999.0,80,-99.99,,,0.00,weatherlink.com 1.10,2013-03-09 11:32:00,
2013-03-09 06:47:00,26.6,22.0,30.31,NNW,339,0.0,-999.0,81,-99.99,,,0.00,weatherlink.com 1.10,2013-03-09 11:47:00,
2013-03-09 07:02:00,24.8,20.0,30.32,NNW,339,0.0,-999.0,82,-99.99,,,0.00,weatherlink.com 1.10,2013-03-09 12:02:00,
2013-03-09 07:17:00,24.2,20.0,30.33,NNW,339,0.0,-999.0,85,-99.99,,,0.00,weatherlink.com 1.10,2013-03-09 12:17:00,
2013-03-09 07:32:00,25.3,22.0,30.33,NNW,339,0.0,-999.0,86,-99.99,,,0.00,weatherlink.com 1.10,2013-03-09 12:32:00,
2013-03-09 07:47:00,25.8,22.0,30.33,NNW,339,0.0,-999.0,84,-99.99,,,0.00,weatherlink.com 1.10,2013-03-09 12:47:00,
2013-03-09 08:02:00,25.8,21.0,30.34,NNW,339,0.0,-999.0,83,-99.99,,,0.00,weatherlink.com 1.10,2013-03-09 13:02:00,
2013-03-09 08:17:00,25.7,21.0,30.34,NNW,339,0.0,-999.0,83,-99.99,,,0.00,weatherlink.com 1.10,2013-03-09 13:17:00,
2013-03-09 08:32:00,27.3,23.0,30.33,NNW,339,0.0,-999.0,82,-99.99,,,0.00,weatherlink.com 1.10,2013-03-09 13:32:00,
2013-03-09 08:47:00,28.2,23.0,30.32,NNW,339,0.0,-999.0,80,-99.99,,,0.00,weatherlink.com 1.10,2013-03-09 13:47:00,
2013-03-09 09:02:00,29.1,23.0,30.32,NNW,339,0.0,-999.0,79,-99.99,,,0.00,weatherlink.com 1.10,2013-03-09 14:02:00,
2013-03-09 09:17:00,30.6,24.0,30.31,NNW,339,0.0,-999.0,77,-99.99,,,0.00,weatherlink.com 1.10,2013-03-09 14:17:00,
2013-03-09 09:32:00,32.1,25.0,30.31,NNW,339,0.0,-999.0,74,-99.99,,,0.00,weatherlink.com 1.10,2013-03-09 14:32:00,
2013-03-09 09:48:00,34.0,26.0,30.30,NNW,339,0.0,-999.0,73,-99.99,,,0.00,weatherlink.com 1.10,2013-03-09 14:48:00,
2013-03-09 10:03:00,34.3,25.0,30.30,NNW,339,0.0,-999.0,70,-99.99,,,0.00,weatherlink.com 1.10,2013-03-09 15:03:00,
2013-03-09 10:18:00,34.7,25.0,30.31,NNW,339,0.0,-999.0,69,-99.99,,,0.00,weatherlink.com 1.10,2013-03-09 15:18:00,
2013-03-09 10:33:00,37.3,26.0,30.29,NNW,337,0.0,-999.0,63,-99.99,,,0.00,weatherlink.com 1.10,2013-03-09 15:33:00,
2013-03-09 10:48:00,37.3,27.0,30.29,NNW,337,0.0,-999.0,66,-99.99,,,0.00,weatherlink.com 1.10,2013-03-09 15:48:00,
2013-03-09 11:03:00,38.5,26.0,30.28,NNW,328,1.0,-999.0,62,-99.99,,,0.00,weatherlink.com 1.10,2013-03-09 16:03:00,
2013-03-09 11:18:00,40.1,27.0,30.28,NW,326,0.0,-999.0,59,-99.99,,,0.00,weatherlink.com 1.10,2013-03-09 16:18:00,
2013-03-09 11:33:00,41.3,27.0,30.27,NW,322,0.0,-999.0,57,-99.99,,,0.00,weatherlink.com 1.10,2013-03-09 16:33:00,
2013-03-09 11:48:00,42.5,28.0,30.27,NW,320,0.0,-999.0,58,-99.99,,,0.00,weatherlink.com 1.10,2013-03-09 16:48:00,
2013-03-09 12:03:00,43.9,29.0,30.25,NW,320,0.0,-999.0,57,-99.99,,,0.00,weatherlink.com 1.10,2013-03-09 17:03:00,
2013-03-09 12:18:00,44.6,29.0,30.25,NW,319,2.0,-999.0,55,-99.99,,,0.00,weatherlink.com 1.10,2013-03-09 17:18:00,
2013-03-09 12:33:00,46.0,30.0,30.23,NW,304,0.0,-999.0,53,-99.99,,,0.00,weatherlink.com 1.10,2013-03-09 17:33:00,
2013-03-09 12:48:00,47.1,29.0,30.23,NW,312,0.0,-999.0,50,-99.99,,,0.00,weatherlink.com 1.10,2013-03-09 17:48:00,
2013-03-09 13:03:00,48.0,29.0,30.22,NW,325,2.0,-999.0,48,-99.99,,,0.00,weatherlink.com 1.10,2013-03-09 18:03:00,
2013-03-09 13:18:00,48.5,28.0,30.22,NNW,343,4.0,-999.0,45,-99.99,,,0.00,weatherlink.com 1.10,2013-03-09 18:18:00,
2013-03-09 13:33:00,49.6,28.0,30.21,NNW,340,3.0,-999.0,44,-99.99,,,0.00,weatherlink.com 1.10,2013-03-09 18:33:00,
2013-03-09 13:48:00,50.5,29.0,30.20,NNW,342,2.0,-999.0,43,-99.99,,,0.00,weatherlink.com 1.10,2013-03-09 18:48:00,
2013-03-09 14:03:00,51.1,27.0,30.19,North,0,0.0,-999.0,40,-99.99,,,0.00,weatherlink.com 1.10,2013-03-09 19:03:00,
2013-03-09 14:18:00,51.7,28.0,30.18,North,357,0.0,-999.0,41,-99.99,,,0.00,weatherlink.com 1.10,2013-03-09 19:18:00,
2013-03-09 14:33:00,53.1,26.0,30.18,North,353,0.0,-999.0,35,-99.99,,,0.00,weatherlink.com 1.10,2013-03-09 19:33:00,
2013-03-09 14:48:00,54.2,26.0,30.17,NNW,337,2.0,-999.0,34,-99.99,,,0.00,weatherlink.com 1.10,2013-03-09 19:48:00,
2013-03-09 15:03:00,56.2,24.0,30.16,NW,313,0.0,-999.0,29,-99.99,,,0.00,weatherlink.com 1.10,2013-03-09 20:03:00,
2013-03-09 15:18:00,56.9,22.0,30.16,East,92,0.0,-999.0,26,-99.99,,,0.00,weatherlink.com 1.10,2013-03-09 20:18:00,
2013-03-09 15:34:00,57.5,21.0,30.15,SE,134,0.0,-999.0,24,-99.99,,,0.00,weatherlink.com 1.10,2013-03-09 20:34:00,
2013-03-09 15:49:00,58.1,21.0,30.14,SSE,147,0.0,-999.0,24,-99.99,,,0.00,weatherlink.com 1.10,2013-03-09 20:49:00,
2013-03-09 16:04:00,58.1,22.0,30.14,SSE,147,0.0,-999.0,25,-99.99,,,0.00,weatherlink.com 1.10,2013-03-09 21:04:00,
2013-03-09 16:19:00,58.3,20.0,30.13,ESE,121,0.0,-999.0,23,-99.99,,,0.00,weatherlink.com 1.10,2013-03-09 21:19:00,
2013-03-09 16:34:00,58.3,21.0,30.13,SE,138,2.0,-999.0,24,-99.99,,,0.00,weatherlink.com 1.10,2013-03-09 21:34:00,
2013-03-09 16:49:00,58.1,21.0,30.13,SE,140,3.0,-999.0,24,-99.99,,,0.00,weatherlink.com 1.10,2013-03-09 21:49:00,
2013-03-09 17:04:00,57.8,19.0,30.13,SSE,155,0.0,-999.0,22,-99.99,,,0.00,weatherlink.com 1.10,2013-03-09 22:04:00,
2013-03-09 17:19:00,57.5,17.0,30.13,SE,143,0.0,-999.0,20,-99.99,,,0.00,weatherlink.com 1.10,2013-03-09 22:19:00,
2013-03-09 17:34:00,57.2,17.0,30.13,SE,137,0.0,-999.0,21,-99.99,,,0.00,weatherlink.com 1.10,2013-03-09 22:34:00,
2013-03-09 17:49:00,56.0,17.0,30.13,SE,136,0.0,-999.0,22,-99.99,,,0.00,weatherlink.com 1.10,2013-03-09 22:49:00,
2013-03-09 18:04:00,55.0,18.0,30.13,SE,136,0.0,-999.0,23,-99.99,,,0.00,weatherlink.com 1.10,2013-03-09 23:04:00,
2013-03-09 18:19:00,53.5,16.0,30.14,SE,136,0.0,-999.0,23,-99.99,,,0.00,weatherlink.com 1.10,2013-03-09 23:19:00,
2013-03-09 18:34:00,51.9,18.0,30.14,SE,134,0.0,-999.0,26,-99.99,,,0.00,weatherlink.com 1.10,2013-03-09 23:34:00,
2013-03-09 18:49:00,50.8,15.0,30.14,SE,134,5.0,-999.0,24,-99.99,,,0.00,weatherlink.com 1.10,2013-03-09 23:49:00,
2013-03-09 19:04:00,51.6,18.0,30.14,SE,134,5.0,-999.0,27,-99.99,,,0.00,weatherlink.com 1.10,2013-03-10 00:04:00,
2013-03-09 19:19:00,49.9,15.0,30.14,South,178,2.0,-999.0,25,-99.99,,,0.00,weatherlink.com 1.10,2013-03-10 00:19:00,
2013-03-09 19:34:00,49.6,17.0,30.14,SE,143,4.0,-999.0,27,-99.99,,,0.00,weatherlink.com 1.10,2013-03-10 00:34:00,
2013-03-09 19:49:00,48.9,17.0,30.14,SE,138,11.0,-999.0,28,-99.99,,,0.00,weatherlink.com 1.10,2013-03-10 00:49:00,
2013-03-09 20:04:00,49.1,15.0,30.13,SE,126,4.0,-999.0,25,-99.99,,,0.00,weatherlink.com 1.10,2013-03-10 01:04:00,
2013-03-09 20:19:00,48.8,15.0,30.12,East,90,6.0,-999.0,26,-99.99,,,0.00,weatherlink.com 1.10,2013-03-10 01:19:00,
2013-03-09 20:34:00,48.9,16.0,30.12,SE,145,3.0,-999.0,27,-99.99,,,0.00,weatherlink.com 1.10,2013-03-10 01:34:00,
2013-03-09 20:49:00,48.0,16.0,30.13,SE,134,2.0,-999.0,28,-99.99,,,0.00,weatherlink.com 1.10,2013-03-10 01:49:00,
2013-03-09 21:04:00,48.0,16.0,30.12,ESE,116,1.0,-999.0,28,-99.99,,,0.00,weatherlink.com 1.10,2013-03-10 02:04:00,
2013-03-09 21:19:00,46.7,20.0,30.12,ESE,121,2.0,-999.0,34,-99.99,,,0.00,weatherlink.com 1.10,2013-03-10 02:19:00,
2013-03-09 21:34:00,46.8,20.0,30.12,ESE,113,8.0,-999.0,35,-99.99,,,0.00,weatherlink.com 1.10,2013-03-10 02:34:00,
2013-03-09 21:49:00,47.0,20.0,30.12,SE,128,6.0,-999.0,35,-99.99,,,0.00,weatherlink.com 1.10,2013-03-10 02:49:00,
2013-03-09 22:04:00,47.6,21.0,30.11,ESE,119,2.0,-999.0,35,-99.99,,,0.00,weatherlink.com 1.10,2013-03-10 03:04:00,
2013-03-09 22:19:00,48.8,21.0,30.10,SSE,161,6.0,-999.0,33,-99.99,,,0.00,weatherlink.com 1.10,2013-03-10 03:19:00,
2013-03-09 22:34:00,49.2,20.0,30.10,ESE,119,6.0,-999.0,31,-99.99,,,0.00,weatherlink.com 1.10,2013-03-10 03:34:00,
2013-03-09 22:49:00,49.4,21.0,30.09,SW,223,5.0,-999.0,33,-99.99,,,0.00,weatherlink.com 1.10,2013-03-10 03:49:00,
2013-03-09 23:04:00,49.6,20.0,30.09,SE,141,12.0,-999.0,31,-99.99,,,0.00,weatherlink.com 1.10,2013-03-10 04:04:00,
2013-03-09 23:19:00,49.5,20.0,30.07,SSE,150,12.0,-999.0,31,-99.99,,,0.00,weatherlink.com 1.10,2013-03-10 04:19:00,
2013-03-09 23:34:00,50.2,19.0,30.06,SE,131,9.0,-999.0,29,-99.99,,,0.00,weatherlink.com 1.10,2013-03-10 04:34:00,
2013-03-09 23:49:00,49.9,19.0,30.07,SE,145,7.0,-999.0,29,-99.99,,,0.00,weatherlink.com 1.10,2013-03-10 04:49:00,